Cincinnati Municipal Airport Lunken Field
KLUK : rendu visible

Aérodrome :











RETROUVEZ-NOUS SUR...

 
LOGIN :

S'inscrire | Disclaimer

   EN    FR    IT 

 









Légende :    VFR   VFR Marginal   IFR   IFR Intensif   IFR Très Intensif
Visi : 
Plafond : 
>= 8 km
>= 3000ft
5 à 8 km
1000 à 3000 ft
1500m à 5 km
500 à 1000 ft
800 à 1500m
200 à 500 ft
< 800m
< 200 ft
Symboles :   Orages  Brouillard  Fortes neiges  Fortes précipitations  Vent > 20 kt






- Altitude de l'aérodrome : 483 ft
- Code IATA : LUK


KLUK - Cincinnati Municipal Lunken Field

DERNIER METAR :
  • 191253Z 05003KT 5SM BR FEW031 SCT120 02/01 A2983 RMK AO2 SLP105 T00170011

METARs EXPIRÉS :
  • 191212Z AUTO 00000KT 7SM BKN027 01/01 A2983 RMK AO2 T00110006
  • 191153Z AUTO 00000KT 6SM BR FEW025 BKN030 02/01 A2982 RMK AO2 SLP101 T00170011 10044 20006 53000
  • 191053Z AUTO 00000KT 5SM BR OVC031 01/01 A2982 RMK AO2 SLP099 T00060006
  • 191024Z AUTO 00000KT 8SM SCT029 02/01 A2982 RMK AO2 T00220011

TAF KLUK
Valide du 19 à 12h jusqu'au 20 à 12h UTC


191120Z 1912/2012 23003KT P6SM SCT025 BKN120
TEMPO 1912/1913 5SM BR BKN025
FM191500 18005KT P6SM BKN040
FM191700 18006KT P6SM VCSH BKN035
FM192300 22003KT P6SM BKN025
FM200200 28004KT P6SM OVC015



MET'MAP, la Météo Aéronautique d'un coup d'oeil ! - Copyright ORBIFLY Décembre 2007 - Disclaimer

ORBIFLY MET'MAP TEAM :

Programmation & Développement : Alexandra Zaïnal
Conception & Développement : Baudouin d'Aumeries
Co-Programmation & Développement : Marc-Olivier Méhu
Soutien technique & logistique : Manuel Goepfert

Contact : metmap@orbifly.com




SOURCES & CREDITS :

   NOAA       Earth
Advisory